sensor_id;sensor_type;location;lat;lon;timestamp;P1;durP1;ratioP1;P2;durP2;ratioP2
37903;SDS011;23738;50.422;18.758;2023-04-24T00:01:07;16.20;;;13.10;;
37903;SDS011;23738;50.422;18.758;2023-04-24T00:03:36;19.10;;;13.50;;
37903;SDS011;23738;50.422;18.758;2023-04-24T00:06:04;17.70;;;14.20;;
37903;SDS011;23738;50.422;18.758;2023-04-24T00:08:34;16.50;;;14.70;;
37903;SDS011;23738;50.422;18.758;2023-04-24T00:11:01;21.60;;;13.90;;
37903;SDS011;23738;50.422;18.758;2023-04-24T00:13:29;21.50;;;14.50;;
37903;SDS011;23738;50.422;18.758;2023-04-24T00:15:56;33.50;;;16.90;;
37903;SDS011;23738;50.422;18.758;2023-04-24T00:18:23;17.60;;;12.90;;
37903;SDS011;23738;50.422;18.758;2023-04-24T00:20:50;16.30;;;12.10;;
37903;SDS011;23738;50.422;18.758;2023-04-24T00:23:18;19.40;;;13.10;;
37903;SDS011;23738;50.422;18.758;2023-04-24T00:25:45;24.40;;;15.00;;
37903;SDS011;23738;50.422;18.758;2023-04-24T00:28:12;27.80;;;16.80;;
37903;SDS011;23738;50.422;18.758;2023-04-24T00:30:40;21.70;;;16.20;;
37903;SDS011;23738;50.422;18.758;2023-04-24T00:33:07;24.00;;;17.20;;
37903;SDS011;23738;50.422;18.758;2023-04-24T00:35:35;30.90;;;17.50;;
37903;SDS011;23738;50.422;18.758;2023-04-24T00:38:02;22.10;;;17.70;;
37903;SDS011;23738;50.422;18.758;2023-04-24T00:40:29;25.90;;;16.40;;
37903;SDS011;23738;50.422;18.758;2023-04-24T00:42:56;20.30;;;14.70;;
37903;SDS011;23738;50.422;18.758;2023-04-24T00:45:24;17.70;;;14.30;;
37903;SDS011;23738;50.422;18.758;2023-04-24T00:47:52;22.30;;;13.60;;
37903;SDS011;23738;50.422;18.758;2023-04-24T00:50:20;23.80;;;16.00;;
37903;SDS011;23738;50.422;18.758;2023-04-24T00:52:47;21.00;;;15.70;;
37903;SDS011;23738;50.422;18.758;2023-04-24T00:55:15;21.50;;;16.40;;
37903;SDS011;23738;50.422;18.758;2023-04-24T00:57:42;23.50;;;16.70;;
37903;SDS011;23738;50.422;18.758;2023-04-24T01:02:58;21.80;;;16.90;;
37903;SDS011;23738;50.422;18.758;2023-04-24T01:06:06;19.30;;;16.20;;
37903;SDS011;23738;50.422;18.758;2023-04-24T01:09:33;24.40;;;15.90;;
37903;SDS011;23738;50.422;18.758;2023-04-24T01:13:00;21.30;;;14.70;;
37903;SDS011;23738;50.422;18.758;2023-04-24T01:16:28;22.10;;;14.00;;
37903;SDS011;23738;50.422;18.758;2023-04-24T01:19:55;15.00;;;12.90;;
37903;SDS011;23738;50.422;18.758;2023-04-24T01:26:43;16.20;;;13.20;;
37903;SDS011;23738;50.422;18.758;2023-04-24T01:30:07;16.00;;;13.10;;
37903;SDS011;23738;50.422;18.758;2023-04-24T01:32:41;17.80;;;12.90;;
37903;SDS011;23738;50.422;18.758;2023-04-24T01:35:10;14.50;;;11.80;;
37903;SDS011;23738;50.422;18.758;2023-04-24T01:37:37;17.30;;;12.30;;
37903;SDS011;23738;50.422;18.758;2023-04-24T01:40:05;14.00;;;12.60;;
37903;SDS011;23738;50.422;18.758;2023-04-24T01:42:53;18.20;;;11.80;;
37903;SDS011;23738;50.422;18.758;2023-04-24T01:46:20;16.60;;;12.70;;
37903;SDS011;23738;50.422;18.758;2023-04-24T01:49:28;16.50;;;11.60;;
37903;SDS011;23738;50.422;18.758;2023-04-24T01:52:34;15.80;;;12.10;;
37903;SDS011;23738;50.422;18.758;2023-04-24T01:55:22;17.00;;;12.60;;
37903;SDS011;23738;50.422;18.758;2023-04-24T01:58:45;14.10;;;11.80;;
37903;SDS011;23738;50.422;18.758;2023-04-24T02:01:52;17.50;;;13.60;;
37903;SDS011;23738;50.422;18.758;2023-04-24T02:07:18;15.30;;;13.30;;
37903;SDS011;23738;50.422;18.758;2023-04-24T02:10:21;23.80;;;15.90;;
37903;SDS011;23738;50.422;18.758;2023-04-24T02:13:08;19.30;;;14.90;;
37903;SDS011;23738;50.422;18.758;2023-04-24T02:16:10;18.70;;;14.80;;
37903;SDS011;23738;50.422;18.758;2023-04-24T02:19:37;21.40;;;14.60;;
37903;SDS011;23738;50.422;18.758;2023-04-24T02:23:04;19.50;;;14.30;;
37903;SDS011;23738;50.422;18.758;2023-04-24T02:25:32;19.00;;;13.70;;
37903;SDS011;23738;50.422;18.758;2023-04-24T02:28:00;22.40;;;15.10;;
37903;SDS011;23738;50.422;18.758;2023-04-24T02:30:28;16.90;;;14.40;;
37903;SDS011;23738;50.422;18.758;2023-04-24T02:32:56;21.30;;;15.30;;
37903;SDS011;23738;50.422;18.758;2023-04-24T02:35:23;17.00;;;14.60;;
37903;SDS011;23738;50.422;18.758;2023-04-24T02:37:51;25.10;;;14.60;;
37903;SDS011;23738;50.422;18.758;2023-04-24T02:40:18;17.70;;;14.50;;
37903;SDS011;23738;50.422;18.758;2023-04-24T02:42:46;18.10;;;14.90;;
37903;SDS011;23738;50.422;18.758;2023-04-24T02:45:13;21.20;;;15.10;;
37903;SDS011;23738;50.422;18.758;2023-04-24T02:47:41;23.90;;;14.70;;
37903;SDS011;23738;50.422;18.758;2023-04-24T02:50:08;16.50;;;14.80;;
37903;SDS011;23738;50.422;18.758;2023-04-24T02:52:36;18.10;;;13.50;;
37903;SDS011;23738;50.422;18.758;2023-04-24T02:55:04;19.40;;;14.20;;
37903;SDS011;23738;50.422;18.758;2023-04-24T02:57:33;20.30;;;15.40;;
37903;SDS011;23738;50.422;18.758;2023-04-24T03:00:06;20.70;;;16.70;;
37903;SDS011;23738;50.422;18.758;2023-04-24T03:02:53;29.00;;;17.70;;
37903;SDS011;23738;50.422;18.758;2023-04-24T03:05:28;22.30;;;16.10;;
37903;SDS011;23738;50.422;18.758;2023-04-24T03:07:57;27.80;;;17.00;;
37903;SDS011;23738;50.422;18.758;2023-04-24T03:10:40;24.00;;;17.40;;
37903;SDS011;23738;50.422;18.758;2023-04-24T03:13:13;29.10;;;16.60;;
37903;SDS011;23738;50.422;18.758;2023-04-24T03:15:41;21.30;;;16.60;;
37903;SDS011;23738;50.422;18.758;2023-04-24T03:18:37;21.50;;;16.90;;
37903;SDS011;23738;50.422;18.758;2023-04-24T03:21:44;22.90;;;16.40;;
37903;SDS011;23738;50.422;18.758;2023-04-24T03:24:19;22.80;;;15.70;;
37903;SDS011;23738;50.422;18.758;2023-04-24T03:26:47;21.00;;;14.80;;
37903;SDS011;23738;50.422;18.758;2023-04-24T03:29:30;17.00;;;14.40;;
37903;SDS011;23738;50.422;18.758;2023-04-24T03:31:58;19.30;;;15.40;;
37903;SDS011;23738;50.422;18.758;2023-04-24T03:35:25;18.60;;;15.30;;
37903;SDS011;23738;50.422;18.758;2023-04-24T03:38:33;19.60;;;15.10;;
37903;SDS011;23738;50.422;18.758;2023-04-24T03:41:35;18.60;;;15.90;;
37903;SDS011;23738;50.422;18.758;2023-04-24T03:44:59;23.50;;;16.50;;
37903;SDS011;23738;50.422;18.758;2023-04-24T03:47:46;20.80;;;15.90;;
37903;SDS011;23738;50.422;18.758;2023-04-24T03:51:13;23.40;;;15.40;;
37903;SDS011;23738;50.422;18.758;2023-04-24T03:53:57;19.80;;;15.80;;
37903;SDS011;23738;50.422;18.758;2023-04-24T03:57:24;16.20;;;14.40;;
37903;SDS011;23738;50.422;18.758;2023-04-24T04:00:35;17.90;;;14.40;;
37903;SDS011;23738;50.422;18.758;2023-04-24T04:04:02;23.70;;;14.60;;
37903;SDS011;23738;50.422;18.758;2023-04-24T04:07:29;18.30;;;13.60;;
37903;SDS011;23738;50.422;18.758;2023-04-24T04:10:56;20.30;;;13.80;;
37903;SDS011;23738;50.422;18.758;2023-04-24T04:14:24;27.50;;;15.30;;
37903;SDS011;23738;50.422;18.758;2023-04-24T04:17:51;35.30;;;16.70;;
37903;SDS011;23738;50.422;18.758;2023-04-24T04:21:18;24.70;;;15.60;;
37903;SDS011;23738;50.422;18.758;2023-04-24T04:24:41;21.30;;;13.00;;
37903;SDS011;23738;50.422;18.758;2023-04-24T04:28:08;15.20;;;13.00;;
37903;SDS011;23738;50.422;18.758;2023-04-24T04:31:19;15.40;;;12.80;;
37903;SDS011;23738;50.422;18.758;2023-04-24T04:33:49;17.10;;;12.90;;
37903;SDS011;23738;50.422;18.758;2023-04-24T04:36:16;18.20;;;12.40;;
37903;SDS011;23738;50.422;18.758;2023-04-24T04:38:44;16.30;;;12.40;;
37903;SDS011;23738;50.422;18.758;2023-04-24T04:41:51;19.00;;;14.10;;
37903;SDS011;23738;50.422;18.758;2023-04-24T04:45:18;19.00;;;12.80;;
37903;SDS011;23738;50.422;18.758;2023-04-24T04:48:26;17.70;;;11.20;;
37903;SDS011;23738;50.422;18.758;2023-04-24T04:51:43;17.50;;;10.30;;
37903;SDS011;23738;50.422;18.758;2023-04-24T04:54:35;14.30;;;10.80;;
37903;SDS011;23738;50.422;18.758;2023-04-24T04:57:58;13.40;;;9.80;;
37903;SDS011;23738;50.422;18.758;2023-04-24T05:00:26;13.60;;;9.90;;
37903;SDS011;23738;50.422;18.758;2023-04-24T05:02:54;21.30;;;16.10;;
37903;SDS011;23738;50.422;18.758;2023-04-24T05:05:22;41.20;;;27.30;;
37903;SDS011;23738;50.422;18.758;2023-04-24T05:07:49;103.10;;;46.80;;
37903;SDS011;23738;50.422;18.758;2023-04-24T05:10:16;75.90;;;36.70;;
37903;SDS011;23738;50.422;18.758;2023-04-24T05:12:43;35.40;;;21.40;;
37903;SDS011;23738;50.422;18.758;2023-04-24T05:15:11;28.70;;;17.50;;
37903;SDS011;23738;50.422;18.758;2023-04-24T05:17:38;18.80;;;11.10;;
37903;SDS011;23738;50.422;18.758;2023-04-24T05:20:08;21.50;;;12.30;;
37903;SDS011;23738;50.422;18.758;2023-04-24T05:22:35;19.70;;;10.80;;
37903;SDS011;23738;50.422;18.758;2023-04-24T05:25:03;17.10;;;9.90;;
37903;SDS011;23738;50.422;18.758;2023-04-24T05:27:31;13.40;;;9.20;;
37903;SDS011;23738;50.422;18.758;2023-04-24T05:29:58;19.20;;;9.70;;
37903;SDS011;23738;50.422;18.758;2023-04-24T05:33:03;14.00;;;9.60;;
37903;SDS011;23738;50.422;18.758;2023-04-24T05:35:54;22.90;;;9.30;;
37903;SDS011;23738;50.422;18.758;2023-04-24T05:39:03;20.90;;;9.60;;
37903;SDS011;23738;50.422;18.758;2023-04-24T05:42:07;17.50;;;10.30;;
37903;SDS011;23738;50.422;18.758;2023-04-24T05:45:07;18.40;;;9.60;;
37903;SDS011;23738;50.422;18.758;2023-04-24T05:47:42;18.40;;;10.30;;
37903;SDS011;23738;50.422;18.758;2023-04-24T05:51:09;18.20;;;9.80;;
37903;SDS011;23738;50.422;18.758;2023-04-24T05:54:05;17.90;;;9.10;;
37903;SDS011;23738;50.422;18.758;2023-04-24T05:57:12;13.10;;;8.50;;
37903;SDS011;23738;50.422;18.758;2023-04-24T06:00:15;13.30;;;7.70;;
37903;SDS011;23738;50.422;18.758;2023-04-24T06:02:45;19.50;;;7.80;;
37903;SDS011;23738;50.422;18.758;2023-04-24T06:05:12;13.30;;;7.30;;
37903;SDS011;23738;50.422;18.758;2023-04-24T06:07:40;9.80;;;6.60;;
37903;SDS011;23738;50.422;18.758;2023-04-24T06:10:09;7.30;;;5.60;;
37903;SDS011;23738;50.422;18.758;2023-04-24T06:12:36;12.70;;;6.80;;
37903;SDS011;23738;50.422;18.758;2023-04-24T06:15:05;7.90;;;5.50;;
37903;SDS011;23738;50.422;18.758;2023-04-24T06:17:33;10.80;;;4.80;;
37903;SDS011;23738;50.422;18.758;2023-04-24T06:20:01;6.30;;;4.40;;
37903;SDS011;23738;50.422;18.758;2023-04-24T06:22:30;7.60;;;4.80;;
37903;SDS011;23738;50.422;18.758;2023-04-24T06:25:58;12.40;;;5.20;;
37903;SDS011;23738;50.422;18.758;2023-04-24T06:29:36;7.60;;;5.00;;
37903;SDS011;23738;50.422;18.758;2023-04-24T06:32:59;7.60;;;4.70;;
37903;SDS011;23738;50.422;18.758;2023-04-24T06:36:26;6.10;;;4.40;;
37903;SDS011;23738;50.422;18.758;2023-04-24T06:39:54;6.20;;;3.90;;
37903;SDS011;23738;50.422;18.758;2023-04-24T06:43:26;8.50;;;4.20;;
37903;SDS011;23738;50.422;18.758;2023-04-24T06:46:54;6.30;;;4.10;;
37903;SDS011;23738;50.422;18.758;2023-04-24T06:50:21;10.40;;;3.70;;
37903;SDS011;23738;50.422;18.758;2023-04-24T06:53:46;5.40;;;4.10;;
37903;SDS011;23738;50.422;18.758;2023-04-24T06:56:34;9.70;;;4.40;;
37903;SDS011;23738;50.422;18.758;2023-04-24T06:59:01;5.90;;;3.00;;
37903;SDS011;23738;50.422;18.758;2023-04-24T07:01:28;8.00;;;2.80;;
37903;SDS011;23738;50.422;18.758;2023-04-24T07:03:56;3.90;;;3.20;;
37903;SDS011;23738;50.422;18.758;2023-04-24T07:06:23;5.30;;;3.20;;
37903;SDS011;23738;50.422;18.758;2023-04-24T07:08:51;5.40;;;3.80;;
37903;SDS011;23738;50.422;18.758;2023-04-24T07:11:18;9.40;;;3.20;;
37903;SDS011;23738;50.422;18.758;2023-04-24T07:13:45;3.80;;;2.90;;
37903;SDS011;23738;50.422;18.758;2023-04-24T07:16:52;6.40;;;5.80;;
37903;SDS011;23738;50.422;18.758;2023-04-24T07:23:30;7.70;;;4.50;;
37903;SDS011;23738;50.422;18.758;2023-04-24T07:26:42;15.00;;;13.10;;
37903;SDS011;23738;50.422;18.758;2023-04-24T07:29:12;15.60;;;14.20;;
37903;SDS011;23738;50.422;18.758;2023-04-24T07:31:39;10.20;;;9.20;;
37903;SDS011;23738;50.422;18.758;2023-04-24T07:35:07;6.50;;;4.70;;
37903;SDS011;23738;50.422;18.758;2023-04-24T07:38:34;5.30;;;3.30;;
37903;SDS011;23738;50.422;18.758;2023-04-24T07:42:00;3.10;;;2.60;;
37903;SDS011;23738;50.422;18.758;2023-04-24T07:45:28;3.20;;;2.30;;
37903;SDS011;23738;50.422;18.758;2023-04-24T07:48:23;4.50;;;2.90;;
37903;SDS011;23738;50.422;18.758;2023-04-24T07:50:52;4.40;;;3.40;;
37903;SDS011;23738;50.422;18.758;2023-04-24T07:53:19;6.00;;;2.90;;
37903;SDS011;23738;50.422;18.758;2023-04-24T07:55:46;3.50;;;2.80;;
37903;SDS011;23738;50.422;18.758;2023-04-24T07:58:14;7.20;;;4.00;;
37903;SDS011;23738;50.422;18.758;2023-04-24T08:00:41;5.70;;;2.80;;
37903;SDS011;23738;50.422;18.758;2023-04-24T08:03:09;8.50;;;2.90;;
37903;SDS011;23738;50.422;18.758;2023-04-24T08:05:36;10.10;;;3.10;;
37903;SDS011;23738;50.422;18.758;2023-04-24T08:08:03;7.80;;;3.30;;
37903;SDS011;23738;50.422;18.758;2023-04-24T08:10:31;4.10;;;3.30;;
37903;SDS011;23738;50.422;18.758;2023-04-24T08:12:58;4.00;;;2.90;;
37903;SDS011;23738;50.422;18.758;2023-04-24T08:15:26;4.70;;;3.30;;
37903;SDS011;23738;50.422;18.758;2023-04-24T08:17:54;5.80;;;3.10;;
37903;SDS011;23738;50.422;18.758;2023-04-24T08:20:21;5.60;;;2.60;;
37903;SDS011;23738;50.422;18.758;2023-04-24T08:22:49;7.70;;;2.70;;
37903;SDS011;23738;50.422;18.758;2023-04-24T08:25:16;4.40;;;2.30;;
37903;SDS011;23738;50.422;18.758;2023-04-24T08:27:44;3.90;;;2.80;;
37903;SDS011;23738;50.422;18.758;2023-04-24T08:30:12;3.30;;;2.60;;
37903;SDS011;23738;50.422;18.758;2023-04-24T08:32:40;3.70;;;2.30;;
37903;SDS011;23738;50.422;18.758;2023-04-24T08:35:08;4.90;;;2.80;;
37903;SDS011;23738;50.422;18.758;2023-04-24T08:37:35;3.40;;;2.70;;
37903;SDS011;23738;50.422;18.758;2023-04-24T08:40:04;4.10;;;2.50;;
37903;SDS011;23738;50.422;18.758;2023-04-24T08:42:38;3.70;;;2.60;;
37903;SDS011;23738;50.422;18.758;2023-04-24T08:45:09;4.20;;;2.90;;
37903;SDS011;23738;50.422;18.758;2023-04-24T08:47:37;2.40;;;2.20;;
37903;SDS011;23738;50.422;18.758;2023-04-24T08:50:07;4.90;;;3.20;;
37903;SDS011;23738;50.422;18.758;2023-04-24T08:52:35;7.20;;;2.60;;
37903;SDS011;23738;50.422;18.758;2023-04-24T08:55:03;3.30;;;2.70;;
37903;SDS011;23738;50.422;18.758;2023-04-24T08:57:31;5.70;;;2.60;;
37903;SDS011;23738;50.422;18.758;2023-04-24T08:59:59;4.00;;;2.60;;
37903;SDS011;23738;50.422;18.758;2023-04-24T09:02:30;3.10;;;2.60;;
37903;SDS011;23738;50.422;18.758;2023-04-24T09:05:00;4.60;;;2.90;;
37903;SDS011;23738;50.422;18.758;2023-04-24T09:07:29;4.00;;;3.10;;
37903;SDS011;23738;50.422;18.758;2023-04-24T09:10:01;6.80;;;2.70;;
37903;SDS011;23738;50.422;18.758;2023-04-24T09:12:29;4.00;;;3.10;;
37903;SDS011;23738;50.422;18.758;2023-04-24T09:14:56;3.70;;;2.70;;
37903;SDS011;23738;50.422;18.758;2023-04-24T09:17:24;6.80;;;2.80;;
37903;SDS011;23738;50.422;18.758;2023-04-24T09:19:54;4.00;;;2.80;;
37903;SDS011;23738;50.422;18.758;2023-04-24T09:22:22;5.80;;;2.90;;
37903;SDS011;23738;50.422;18.758;2023-04-24T09:24:50;7.70;;;2.70;;
37903;SDS011;23738;50.422;18.758;2023-04-24T09:27:28;3.60;;;2.80;;
37903;SDS011;23738;50.422;18.758;2023-04-24T09:29:56;4.30;;;2.80;;
37903;SDS011;23738;50.422;18.758;2023-04-24T09:32:24;4.00;;;2.70;;
37903;SDS011;23738;50.422;18.758;2023-04-24T09:35:05;6.20;;;3.30;;
37903;SDS011;23738;50.422;18.758;2023-04-24T09:37:35;6.60;;;3.00;;
37903;SDS011;23738;50.422;18.758;2023-04-24T09:40:14;3.50;;;2.90;;
37903;SDS011;23738;50.422;18.758;2023-04-24T09:42:45;4.00;;;2.80;;
37903;SDS011;23738;50.422;18.758;2023-04-24T09:45:18;9.40;;;2.70;;
37903;SDS011;23738;50.422;18.758;2023-04-24T09:47:46;5.40;;;2.80;;
37903;SDS011;23738;50.422;18.758;2023-04-24T09:50:19;6.90;;;3.10;;
37903;SDS011;23738;50.422;18.758;2023-04-24T09:52:54;5.30;;;3.10;;
37903;SDS011;23738;50.422;18.758;2023-04-24T09:55:24;4.40;;;3.10;;
37903;SDS011;23738;50.422;18.758;2023-04-24T09:57:52;6.50;;;3.00;;
37903;SDS011;23738;50.422;18.758;2023-04-24T10:00:22;3.50;;;2.60;;
37903;SDS011;23738;50.422;18.758;2023-04-24T10:02:54;4.70;;;3.00;;
37903;SDS011;23738;50.422;18.758;2023-04-24T10:05:28;5.40;;;2.70;;
37903;SDS011;23738;50.422;18.758;2023-04-24T10:07:57;3.30;;;2.70;;
37903;SDS011;23738;50.422;18.758;2023-04-24T10:10:28;4.80;;;2.70;;
37903;SDS011;23738;50.422;18.758;2023-04-24T10:12:56;4.80;;;3.10;;
37903;SDS011;23738;50.422;18.758;2023-04-24T10:15:23;4.00;;;2.50;;
37903;SDS011;23738;50.422;18.758;2023-04-24T10:17:52;3.50;;;3.10;;
37903;SDS011;23738;50.422;18.758;2023-04-24T10:20:20;6.10;;;2.70;;
37903;SDS011;23738;50.422;18.758;2023-04-24T10:22:49;3.50;;;2.50;;
37903;SDS011;23738;50.422;18.758;2023-04-24T10:25:19;7.40;;;2.90;;
37903;SDS011;23738;50.422;18.758;2023-04-24T10:27:47;7.20;;;2.80;;
37903;SDS011;23738;50.422;18.758;2023-04-24T10:30:16;3.30;;;2.60;;
37903;SDS011;23738;50.422;18.758;2023-04-24T10:32:44;6.30;;;2.50;;
37903;SDS011;23738;50.422;18.758;2023-04-24T10:35:12;3.10;;;2.50;;
37903;SDS011;23738;50.422;18.758;2023-04-24T10:37:42;3.60;;;2.60;;
37903;SDS011;23738;50.422;18.758;2023-04-24T10:40:12;2.80;;;2.20;;
37903;SDS011;23738;50.422;18.758;2023-04-24T10:42:44;4.60;;;2.20;;
37903;SDS011;23738;50.422;18.758;2023-04-24T10:45:17;3.20;;;2.20;;
37903;SDS011;23738;50.422;18.758;2023-04-24T10:47:54;3.10;;;2.20;;
37903;SDS011;23738;50.422;18.758;2023-04-24T10:50:25;8.30;;;2.30;;
37903;SDS011;23738;50.422;18.758;2023-04-24T10:52:55;2.50;;;2.00;;
37903;SDS011;23738;50.422;18.758;2023-04-24T11:00:55;9.50;;;3.50;;
37903;SDS011;23738;50.422;18.758;2023-04-24T11:03:25;3.50;;;2.60;;
37903;SDS011;23738;50.422;18.758;2023-04-24T11:05:57;6.30;;;3.00;;
37903;SDS011;23738;50.422;18.758;2023-04-24T11:11:15;4.90;;;3.70;;
37903;SDS011;23738;50.422;18.758;2023-04-24T11:14:02;6.90;;;3.90;;
37903;SDS011;23738;50.422;18.758;2023-04-24T11:16:34;4.50;;;3.40;;
37903;SDS011;23738;50.422;18.758;2023-04-24T11:19:06;7.10;;;3.70;;
37903;SDS011;23738;50.422;18.758;2023-04-24T11:21:42;6.80;;;3.70;;
37903;SDS011;23738;50.422;18.758;2023-04-24T11:24:27;5.40;;;3.60;;
37903;SDS011;23738;50.422;18.758;2023-04-24T11:26:57;6.90;;;3.70;;
37903;SDS011;23738;50.422;18.758;2023-04-24T11:29:45;10.20;;;4.20;;
37903;SDS011;23738;50.422;18.758;2023-04-24T11:32:24;9.30;;;3.40;;
37903;SDS011;23738;50.422;18.758;2023-04-24T11:34:53;3.50;;;3.10;;
37903;SDS011;23738;50.422;18.758;2023-04-24T11:37:21;6.60;;;3.40;;
37903;SDS011;23738;50.422;18.758;2023-04-24T11:39:51;6.30;;;3.60;;
37903;SDS011;23738;50.422;18.758;2023-04-24T11:42:22;4.50;;;3.40;;
37903;SDS011;23738;50.422;18.758;2023-04-24T11:44:52;4.50;;;3.30;;
37903;SDS011;23738;50.422;18.758;2023-04-24T11:47:27;8.70;;;3.80;;
37903;SDS011;23738;50.422;18.758;2023-04-24T11:49:55;7.60;;;3.50;;
37903;SDS011;23738;50.422;18.758;2023-04-24T11:52:24;7.70;;;3.60;;
37903;SDS011;23738;50.422;18.758;2023-04-24T11:54:51;4.10;;;3.00;;
37903;SDS011;23738;50.422;18.758;2023-04-24T11:57:19;7.80;;;3.30;;
37903;SDS011;23738;50.422;18.758;2023-04-24T11:59:48;6.20;;;3.30;;
37903;SDS011;23738;50.422;18.758;2023-04-24T12:02:22;3.40;;;2.90;;
37903;SDS011;23738;50.422;18.758;2023-04-24T12:04:50;4.80;;;3.10;;
37903;SDS011;23738;50.422;18.758;2023-04-24T12:07:18;4.20;;;3.40;;
37903;SDS011;23738;50.422;18.758;2023-04-24T12:09:46;3.80;;;3.10;;
37903;SDS011;23738;50.422;18.758;2023-04-24T12:12:16;8.20;;;3.20;;
37903;SDS011;23738;50.422;18.758;2023-04-24T12:14:54;4.10;;;2.80;;
37903;SDS011;23738;50.422;18.758;2023-04-24T12:17:24;6.70;;;3.00;;
37903;SDS011;23738;50.422;18.758;2023-04-24T12:19:56;5.00;;;3.20;;
37903;SDS011;23738;50.422;18.758;2023-04-24T12:22:26;7.80;;;3.50;;
37903;SDS011;23738;50.422;18.758;2023-04-24T12:24:57;5.40;;;3.10;;
37903;SDS011;23738;50.422;18.758;2023-04-24T12:27:28;5.80;;;3.00;;
37903;SDS011;23738;50.422;18.758;2023-04-24T12:29:57;4.00;;;2.90;;
37903;SDS011;23738;50.422;18.758;2023-04-24T12:32:25;5.10;;;3.20;;
37903;SDS011;23738;50.422;18.758;2023-04-24T12:34:53;6.80;;;3.30;;
37903;SDS011;23738;50.422;18.758;2023-04-24T12:37:21;6.50;;;3.40;;
37903;SDS011;23738;50.422;18.758;2023-04-24T12:40:01;3.90;;;3.40;;
37903;SDS011;23738;50.422;18.758;2023-04-24T12:42:31;5.40;;;3.10;;
37903;SDS011;23738;50.422;18.758;2023-04-24T12:45:00;7.00;;;3.40;;
37903;SDS011;23738;50.422;18.758;2023-04-24T12:47:30;3.90;;;3.50;;
37903;SDS011;23738;50.422;18.758;2023-04-24T12:49:58;6.60;;;2.80;;
37903;SDS011;23738;50.422;18.758;2023-04-24T12:52:26;3.50;;;3.10;;
37903;SDS011;23738;50.422;18.758;2023-04-24T12:54:55;3.80;;;3.50;;
37903;SDS011;23738;50.422;18.758;2023-04-24T12:57:24;4.80;;;3.70;;
37903;SDS011;23738;50.422;18.758;2023-04-24T12:59:53;4.50;;;3.90;;
37903;SDS011;23738;50.422;18.758;2023-04-24T13:02:22;3.80;;;3.20;;
37903;SDS011;23738;50.422;18.758;2023-04-24T13:04:49;5.10;;;3.60;;
37903;SDS011;23738;50.422;18.758;2023-04-24T13:07:17;4.00;;;3.60;;
37903;SDS011;23738;50.422;18.758;2023-04-24T13:09:45;4.90;;;3.50;;
37903;SDS011;23738;50.422;18.758;2023-04-24T13:12:14;4.60;;;3.70;;
37903;SDS011;23738;50.422;18.758;2023-04-24T13:14:41;7.80;;;3.10;;
37903;SDS011;23738;50.422;18.758;2023-04-24T13:17:08;5.10;;;3.30;;
37903;SDS011;23738;50.422;18.758;2023-04-24T13:19:37;6.00;;;3.20;;
37903;SDS011;23738;50.422;18.758;2023-04-24T13:22:09;3.30;;;2.90;;
37903;SDS011;23738;50.422;18.758;2023-04-24T13:24:38;6.10;;;3.00;;
37903;SDS011;23738;50.422;18.758;2023-04-24T13:27:07;5.80;;;3.50;;
37903;SDS011;23738;50.422;18.758;2023-04-24T13:29:34;4.80;;;3.70;;
37903;SDS011;23738;50.422;18.758;2023-04-24T13:32:02;7.90;;;3.80;;
37903;SDS011;23738;50.422;18.758;2023-04-24T13:34:29;4.70;;;3.40;;
37903;SDS011;23738;50.422;18.758;2023-04-24T13:36:57;3.50;;;3.00;;
37903;SDS011;23738;50.422;18.758;2023-04-24T13:39:25;3.30;;;2.70;;
37903;SDS011;23738;50.422;18.758;2023-04-24T13:41:52;4.70;;;3.20;;
37903;SDS011;23738;50.422;18.758;2023-04-24T13:44:20;4.60;;;2.80;;
37903;SDS011;23738;50.422;18.758;2023-04-24T13:46:48;7.30;;;2.60;;
37903;SDS011;23738;50.422;18.758;2023-04-24T13:49:18;4.70;;;2.60;;
37903;SDS011;23738;50.422;18.758;2023-04-24T13:51:46;2.90;;;2.50;;
37903;SDS011;23738;50.422;18.758;2023-04-24T13:54:14;2.70;;;2.30;;
37903;SDS011;23738;50.422;18.758;2023-04-24T13:56:41;4.80;;;2.10;;
37903;SDS011;23738;50.422;18.758;2023-04-24T13:59:23;2.60;;;2.00;;
37903;SDS011;23738;50.422;18.758;2023-04-24T14:01:51;3.60;;;2.50;;
37903;SDS011;23738;50.422;18.758;2023-04-24T14:04:18;6.70;;;2.60;;
37903;SDS011;23738;50.422;18.758;2023-04-24T14:06:46;5.60;;;2.50;;
37903;SDS011;23738;50.422;18.758;2023-04-24T14:09:13;3.10;;;2.70;;
37903;SDS011;23738;50.422;18.758;2023-04-24T14:11:40;2.70;;;2.20;;
37903;SDS011;23738;50.422;18.758;2023-04-24T14:14:08;3.70;;;2.80;;
37903;SDS011;23738;50.422;18.758;2023-04-24T14:16:35;4.70;;;2.40;;
37903;SDS011;23738;50.422;18.758;2023-04-24T14:19:03;5.90;;;2.90;;
37903;SDS011;23738;50.422;18.758;2023-04-24T14:21:31;3.00;;;2.70;;
37903;SDS011;23738;50.422;18.758;2023-04-24T14:23:59;4.60;;;2.60;;
37903;SDS011;23738;50.422;18.758;2023-04-24T14:26:26;3.80;;;3.40;;
37903;SDS011;23738;50.422;18.758;2023-04-24T14:28:54;5.80;;;3.40;;
37903;SDS011;23738;50.422;18.758;2023-04-24T14:31:21;7.40;;;3.90;;
37903;SDS011;23738;50.422;18.758;2023-04-24T14:33:48;4.70;;;3.30;;
37903;SDS011;23738;50.422;18.758;2023-04-24T14:36:16;6.90;;;6.20;;
37903;SDS011;23738;50.422;18.758;2023-04-24T14:38:43;11.50;;;9.20;;
37903;SDS011;23738;50.422;18.758;2023-04-24T14:41:10;8.90;;;7.00;;
37903;SDS011;23738;50.422;18.758;2023-04-24T14:43:38;13.40;;;6.10;;
37903;SDS011;23738;50.422;18.758;2023-04-24T14:46:06;11.30;;;7.50;;
37903;SDS011;23738;50.422;18.758;2023-04-24T14:48:33;10.30;;;8.50;;
37903;SDS011;23738;50.422;18.758;2023-04-24T14:51:00;17.90;;;13.80;;
37903;SDS011;23738;50.422;18.758;2023-04-24T14:53:28;22.30;;;15.40;;
37903;SDS011;23738;50.422;18.758;2023-04-24T14:55:55;6.50;;;5.90;;
37903;SDS011;23738;50.422;18.758;2023-04-24T14:58:23;7.10;;;5.50;;
37903;SDS011;23738;50.422;18.758;2023-04-24T15:00:50;5.30;;;4.80;;
37903;SDS011;23738;50.422;18.758;2023-04-24T15:03:20;3.90;;;3.40;;
37903;SDS011;23738;50.422;18.758;2023-04-24T15:05:48;3.10;;;2.80;;
37903;SDS011;23738;50.422;18.758;2023-04-24T15:08:16;3.70;;;2.50;;
37903;SDS011;23738;50.422;18.758;2023-04-24T15:10:44;3.40;;;2.70;;
37903;SDS011;23738;50.422;18.758;2023-04-24T15:13:11;3.00;;;2.70;;
37903;SDS011;23738;50.422;18.758;2023-04-24T15:15:38;3.50;;;2.80;;
37903;SDS011;23738;50.422;18.758;2023-04-24T15:18:07;5.90;;;3.10;;
37903;SDS011;23738;50.422;18.758;2023-04-24T15:20:37;7.50;;;3.40;;
37903;SDS011;23738;50.422;18.758;2023-04-24T15:23:05;3.60;;;3.30;;
37903;SDS011;23738;50.422;18.758;2023-04-24T15:25:33;4.70;;;4.00;;
37903;SDS011;23738;50.422;18.758;2023-04-24T15:28:02;4.50;;;3.40;;
37903;SDS011;23738;50.422;18.758;2023-04-24T15:30:30;3.90;;;3.20;;
37903;SDS011;23738;50.422;18.758;2023-04-24T15:32:59;4.40;;;3.30;;
37903;SDS011;23738;50.422;18.758;2023-04-24T15:35:26;4.00;;;3.30;;
37903;SDS011;23738;50.422;18.758;2023-04-24T15:37:54;3.70;;;2.90;;
37903;SDS011;23738;50.422;18.758;2023-04-24T15:40:21;4.50;;;3.00;;
37903;SDS011;23738;50.422;18.758;2023-04-24T15:42:49;4.10;;;3.00;;
37903;SDS011;23738;50.422;18.758;2023-04-24T15:45:16;4.70;;;2.90;;
37903;SDS011;23738;50.422;18.758;2023-04-24T15:47:44;3.20;;;3.00;;
37903;SDS011;23738;50.422;18.758;2023-04-24T15:50:12;3.40;;;3.10;;
37903;SDS011;23738;50.422;18.758;2023-04-24T15:52:41;3.20;;;2.90;;